createdAt,value
2023-03-19T00:00:30.099Z,83.20
2023-03-19T00:02:57.440Z,83.23
2023-03-19T00:05:24.591Z,83.38
2023-03-19T00:07:52.147Z,83.32
2023-03-19T00:10:19.243Z,83.33
2023-03-19T00:12:46.553Z,83.65
2023-03-19T00:15:14.652Z,83.96
2023-03-19T00:17:43.080Z,83.99
2023-03-19T00:20:12.251Z,84.01
2023-03-19T00:22:40.049Z,83.96
2023-03-19T00:25:08.642Z,84.14
2023-03-19T00:27:37.503Z,84.33
2023-03-19T00:30:06.616Z,84.31
2023-03-19T00:32:35.315Z,84.16
2023-03-19T00:35:02.370Z,84.05
2023-03-19T00:37:30.580Z,83.70
2023-03-19T00:39:57.472Z,83.85
2023-03-19T00:42:24.563Z,84.15
2023-03-19T00:44:51.525Z,84.42
2023-03-19T00:47:18.862Z,84.51
2023-03-19T00:49:45.810Z,84.72
2023-03-19T00:52:12.763Z,84.57
2023-03-19T00:54:40.586Z,85.02
2023-03-19T00:57:08.102Z,85.09
2023-03-19T00:59:35.017Z,85.18
2023-03-19T01:02:03.718Z,85.30
2023-03-19T01:04:30.907Z,85.40
2023-03-19T01:09:26.741Z,85.56
2023-03-19T01:11:54.176Z,85.65
2023-03-19T01:14:21.945Z,86.08
2023-03-19T01:16:48.839Z,86.01
2023-03-19T01:19:16.482Z,86.07
2023-03-19T01:21:46.434Z,86.41
2023-03-19T01:24:18.293Z,86.49
2023-03-19T01:26:50.842Z,86.70
2023-03-19T01:29:31.979Z,86.54
2023-03-19T01:32:07.591Z,86.49
2023-03-19T01:34:43.753Z,86.41
2023-03-19T01:37:14.179Z,86.44
2023-03-19T01:39:42.789Z,86.54
2023-03-19T01:42:14.685Z,86.14
2023-03-19T01:45:04.323Z,86.11
2023-03-19T01:47:44.710Z,86.34
2023-03-19T01:50:39.510Z,86.66
2023-03-19T01:53:31.854Z,86.69
2023-03-19T01:56:35.063Z,86.95
2023-03-19T01:59:14.239Z,86.46
2023-03-19T02:02:24.044Z,86.99
2023-03-19T02:08:34.055Z,87.36
2023-03-19T02:11:02.152Z,87.41
2023-03-19T02:13:29.370Z,87.59
2023-03-19T02:15:56.889Z,87.51
2023-03-19T02:18:25.622Z,87.17
2023-03-19T02:21:03.393Z,87.46
2023-03-19T02:23:39.699Z,87.30
2023-03-19T02:26:20.044Z,86.85
2023-03-19T02:28:51.510Z,86.81
2023-03-19T02:31:24.954Z,86.66
2023-03-19T02:34:14.355Z,86.72
2023-03-19T02:36:47.521Z,87.13
2023-03-19T02:39:32.432Z,87.36
2023-03-19T02:42:01.137Z,87.34
2023-03-19T02:44:30.715Z,87.77
2023-03-19T02:46:57.903Z,87.87
2023-03-19T02:49:25.077Z,87.87
2023-03-19T02:51:52.070Z,88.07
2023-03-19T02:54:18.906Z,88.25
2023-03-19T02:56:47.269Z,88.18
2023-03-19T02:59:14.119Z,88.37
2023-03-19T03:01:41.179Z,88.22
2023-03-19T03:04:08.805Z,87.98
2023-03-19T03:06:35.746Z,88.13
2023-03-19T03:09:03.651Z,88.26
2023-03-19T03:11:30.556Z,88.30
2023-03-19T03:13:57.771Z,88.44
2023-03-19T03:16:25.677Z,88.32
2023-03-19T03:18:52.792Z,88.06
2023-03-19T03:21:21.506Z,88.44
2023-03-19T03:23:48.734Z,88.40
2023-03-19T03:26:15.857Z,88.09
2023-03-19T03:28:43.491Z,87.74
2023-03-19T03:31:10.615Z,87.94
2023-03-19T03:33:39.798Z,87.92
2023-03-19T03:36:07.189Z,87.87
2023-03-19T03:38:37.158Z,87.90
2023-03-19T03:41:04.830Z,88.05
2023-03-19T03:43:31.913Z,87.99
2023-03-19T03:45:59.686Z,87.97
2023-03-19T03:48:27.145Z,87.88
2023-03-19T03:50:54.489Z,87.89
2023-03-19T03:53:26.194Z,87.71
2023-03-19T03:55:53.336Z,87.42
2023-03-19T03:58:24.116Z,87.62
2023-03-19T04:00:54.679Z,87.62
2023-03-19T04:03:24.405Z,87.91
2023-03-19T04:05:53.009Z,88.03
2023-03-19T04:08:21.873Z,88.02
2023-03-19T04:10:50.595Z,87.82
2023-03-19T04:13:17.878Z,88.06
2023-03-19T04:15:44.895Z,88.36
2023-03-19T04:18:13.435Z,88.05
2023-03-19T04:20:41.518Z,88.34
2023-03-19T04:23:08.701Z,88.52
2023-03-19T04:25:35.712Z,88.31
2023-03-19T04:28:03.821Z,88.61
2023-03-19T04:30:32.015Z,88.72
2023-03-19T04:33:00.827Z,88.81
2023-03-19T04:35:27.696Z,88.76
2023-03-19T04:37:54.806Z,88.72
2023-03-19T04:40:22.241Z,89.03
2023-03-19T04:42:50.138Z,88.88
2023-03-19T04:45:31.631Z,88.99
2023-03-19T04:47:59.522Z,88.96
2023-03-19T04:50:28.011Z,89.15
2023-03-19T04:52:55.681Z,89.12
2023-03-19T04:55:23.839Z,89.08
2023-03-19T04:58:04.613Z,88.73
2023-03-19T05:00:34.369Z,88.88
2023-03-19T05:03:01.672Z,88.85
2023-03-19T05:05:31.448Z,88.68
2023-03-19T05:07:59.058Z,88.73
2023-03-19T05:10:26.627Z,88.64
2023-03-19T05:12:54.378Z,88.46
2023-03-19T05:15:21.910Z,88.32
2023-03-19T05:17:57.827Z,88.18
2023-03-19T05:20:31.489Z,88.02
2023-03-19T05:23:05.401Z,87.84
2023-03-19T05:25:41.950Z,87.48
2023-03-19T05:28:11.554Z,87.00
2023-03-19T05:30:38.449Z,86.54
2023-03-19T05:33:24.084Z,86.17
2023-03-19T05:35:53.305Z,85.97
2023-03-19T05:38:35.364Z,85.71
2023-03-19T05:41:08.464Z,85.00
2023-03-19T05:43:43.813Z,84.69
2023-03-19T05:46:20.028Z,84.45
2023-03-19T05:48:47.456Z,83.40
2023-03-19T05:51:14.356Z,82.76
2023-03-19T05:53:44.285Z,81.67
2023-03-19T05:56:33.767Z,81.15
2023-03-19T05:59:36.016Z,79.90
2023-03-19T06:02:29.038Z,77.98
2023-03-19T06:05:12.239Z,77.77
2023-03-19T06:07:39.247Z,77.84
2023-03-19T06:10:13.068Z,78.12
2023-03-19T06:12:49.125Z,78.05
2023-03-19T06:15:33.682Z,77.15
2023-03-19T06:18:13.106Z,75.76
2023-03-19T06:20:40.322Z,75.86
2023-03-19T06:23:07.339Z,75.93
2023-03-19T06:25:34.575Z,75.79
2023-03-19T06:28:01.427Z,75.87
2023-03-19T06:30:34.919Z,74.33
2023-03-19T06:33:05.531Z,74.17
2023-03-19T06:35:33.439Z,74.08
2023-03-19T06:38:00.669Z,73.77
2023-03-19T06:40:28.311Z,73.56
2023-03-19T06:42:55.578Z,73.56
2023-03-19T06:45:22.769Z,72.96
2023-03-19T06:47:51.644Z,72.80
2023-03-19T06:50:22.009Z,71.77
2023-03-19T06:52:48.732Z,71.74
2023-03-19T06:55:18.234Z,71.27
2023-03-19T06:57:47.854Z,70.99
2023-03-19T07:00:15.446Z,70.97
2023-03-19T07:02:42.258Z,70.36
2023-03-19T07:05:09.352Z,70.31
2023-03-19T07:07:36.556Z,70.25
2023-03-19T07:10:04.029Z,70.39
2023-03-19T07:12:31.068Z,69.88
2023-03-19T07:14:58.052Z,70.01
2023-03-19T07:17:26.656Z,69.17
2023-03-19T07:19:54.735Z,68.30
2023-03-19T07:22:22.123Z,67.91
2023-03-19T07:24:49.168Z,66.77
2023-03-19T07:27:16.838Z,67.38
2023-03-19T07:29:43.720Z,66.58
2023-03-19T07:32:11.763Z,66.58
2023-03-19T07:34:38.784Z,65.97
2023-03-19T07:37:06.217Z,65.91
2023-03-19T07:39:33.106Z,65.74
2023-03-19T07:42:01.266Z,65.87
2023-03-19T07:44:47.990Z,65.26
2023-03-19T07:47:26.392Z,65.58
2023-03-19T07:49:55.728Z,64.84
2023-03-19T07:52:22.900Z,64.20
2023-03-19T07:54:50.666Z,61.98
2023-03-19T07:57:17.568Z,63.04
2023-03-19T07:59:44.547Z,63.02
2023-03-19T08:02:13.368Z,62.83
2023-03-19T08:04:42.086Z,62.50
2023-03-19T08:07:12.922Z,61.53
2023-03-19T08:09:40.727Z,61.21
2023-03-19T08:12:08.407Z,60.64
2023-03-19T08:14:35.654Z,60.92
2023-03-19T08:17:02.709Z,61.79
2023-03-19T08:19:29.708Z,60.05
2023-03-19T08:21:56.732Z,60.03
2023-03-19T08:24:23.615Z,60.85
2023-03-19T08:26:50.791Z,60.79
2023-03-19T08:29:19.052Z,60.06
2023-03-19T08:31:46.442Z,58.98
2023-03-19T08:34:13.381Z,58.20
2023-03-19T08:36:40.478Z,58.54
2023-03-19T08:39:07.458Z,58.47
2023-03-19T08:41:34.432Z,58.48
2023-03-19T08:44:01.519Z,58.95
2023-03-19T08:46:29.358Z,57.37
2023-03-19T08:48:56.535Z,55.81
2023-03-19T08:51:26.308Z,55.00
2023-03-19T08:53:53.897Z,55.87
2023-03-19T08:56:21.471Z,56.04
2023-03-19T08:58:48.515Z,55.67
2023-03-19T09:01:16.210Z,55.29
2023-03-19T09:03:45.400Z,54.99
2023-03-19T09:06:14.613Z,54.59
2023-03-19T09:08:42.239Z,54.33
2023-03-19T09:11:10.950Z,52.26
2023-03-19T09:13:38.094Z,52.22
2023-03-19T09:16:05.574Z,51.85
2023-03-19T09:18:33.703Z,50.50
2023-03-19T09:21:02.826Z,49.94
2023-03-19T09:23:29.804Z,48.84
2023-03-19T09:25:56.677Z,50.55
2023-03-19T09:28:23.798Z,48.87
2023-03-19T09:30:51.764Z,48.02
2023-03-19T09:33:20.458Z,46.00
2023-03-19T09:35:52.666Z,48.16
2023-03-19T09:38:22.038Z,47.85
2023-03-19T09:41:07.286Z,49.22
2023-03-19T09:43:49.620Z,48.33
2023-03-19T09:46:22.725Z,47.80
2023-03-19T09:49:06.468Z,47.20
2023-03-19T09:51:44.058Z,46.67
2023-03-19T09:54:27.643Z,47.43
2023-03-19T09:56:55.910Z,48.41
2023-03-19T09:59:25.101Z,46.26
2023-03-19T10:01:56.236Z,46.18
2023-03-19T10:04:42.605Z,46.32
2023-03-19T10:07:31.039Z,46.74
2023-03-19T10:10:39.476Z,45.56
2023-03-19T10:13:23.107Z,46.47
2023-03-19T10:15:53.061Z,44.12
2023-03-19T10:18:24.898Z,46.05
2023-03-19T10:21:01.354Z,46.32
2023-03-19T10:23:50.733Z,44.68
2023-03-19T10:26:23.749Z,45.68
2023-03-19T10:29:05.010Z,45.05
2023-03-19T10:31:49.863Z,44.77
2023-03-19T10:34:31.508Z,45.50
2023-03-19T10:37:20.660Z,44.38
2023-03-19T10:39:49.695Z,43.73
2023-03-19T10:42:47.165Z,44.49
2023-03-19T10:45:13.970Z,44.04
2023-03-19T10:47:43.156Z,43.85
2023-03-19T10:50:18.413Z,43.67
2023-03-19T10:52:53.278Z,42.67
2023-03-19T10:55:30.478Z,42.20
2023-03-19T10:58:04.821Z,43.21
2023-03-19T11:00:33.614Z,42.29
2023-03-19T11:03:04.861Z,42.19
2023-03-19T11:05:35.144Z,45.40
2023-03-19T11:08:32.849Z,44.35
2023-03-19T11:11:04.768Z,42.45
2023-03-19T11:13:35.028Z,41.15
2023-03-19T11:16:03.298Z,42.99
2023-03-19T11:18:37.206Z,41.88
2023-03-19T11:21:21.623Z,42.70
2023-03-19T11:23:53.581Z,41.36
2023-03-19T11:26:21.936Z,42.23
2023-03-19T11:28:52.411Z,41.61
2023-03-19T11:31:37.620Z,41.18
2023-03-19T11:34:41.121Z,39.10
2023-03-19T11:37:31.677Z,39.95
2023-03-19T11:40:02.011Z,39.68
2023-03-19T11:42:52.567Z,39.84
2023-03-19T11:45:26.226Z,40.93
2023-03-19T11:48:15.598Z,41.91
2023-03-19T11:51:13.781Z,41.22
2023-03-19T11:53:59.446Z,39.71
2023-03-19T11:56:47.272Z,41.85
2023-03-19T11:59:52.968Z,40.55
2023-03-19T12:02:38.146Z,39.47
2023-03-19T12:05:21.209Z,41.01
2023-03-19T12:08:23.332Z,41.41
2023-03-19T12:10:53.746Z,40.09
2023-03-19T12:13:45.921Z,43.61
2023-03-19T12:17:07.297Z,42.75
2023-03-19T12:20:12.628Z,40.21
2023-03-19T12:22:42.487Z,40.74
2023-03-19T12:25:41.121Z,40.23
2023-03-19T12:28:29.428Z,38.95
2023-03-19T12:31:16.802Z,40.53
2023-03-19T12:34:14.943Z,42.18
2023-03-19T12:36:51.829Z,43.13
2023-03-19T12:39:23.717Z,40.21
2023-03-19T12:41:53.386Z,39.76
2023-03-19T12:44:29.747Z,40.39
2023-03-19T12:47:33.856Z,39.60
2023-03-19T12:50:04.891Z,41.47
2023-03-19T12:52:39.126Z,39.45
2023-03-19T12:55:15.355Z,39.59
2023-03-19T12:57:48.936Z,40.79
2023-03-19T13:00:37.796Z,40.46
2023-03-19T13:03:23.133Z,39.30
2023-03-19T13:06:01.817Z,40.00
2023-03-19T13:08:37.571Z,38.46
2023-03-19T13:11:13.054Z,38.85
2023-03-19T13:14:03.282Z,37.13
2023-03-19T13:16:40.056Z,40.67
2023-03-19T13:19:25.468Z,40.16
2023-03-19T13:21:59.828Z,39.44
2023-03-19T13:24:35.209Z,37.64
2023-03-19T13:27:02.585Z,38.53
2023-03-19T13:29:31.990Z,38.80
2023-03-19T13:32:05.841Z,39.90
2023-03-19T13:34:35.780Z,37.89
2023-03-19T13:37:15.897Z,39.36
2023-03-19T13:39:44.560Z,37.65
2023-03-19T13:42:44.332Z,39.71
2023-03-19T13:45:20.480Z,39.24
2023-03-19T13:47:52.992Z,40.25
2023-03-19T13:50:20.511Z,39.36
2023-03-19T13:52:53.804Z,37.81
2023-03-19T13:55:44.672Z,37.86
2023-03-19T13:58:34.738Z,40.02
2023-03-19T14:01:02.151Z,39.46
2023-03-19T14:03:32.350Z,39.29
2023-03-19T14:06:00.960Z,38.55
2023-03-19T14:08:47.623Z,42.29
2023-03-19T14:11:30.408Z,41.90
2023-03-19T14:14:05.133Z,38.96
2023-03-19T14:16:41.395Z,39.30
2023-03-19T14:19:16.840Z,39.25
2023-03-19T14:22:08.215Z,38.54
2023-03-19T14:24:55.920Z,38.50
2023-03-19T14:27:36.293Z,38.05
2023-03-19T14:30:11.150Z,38.13
2023-03-19T14:32:42.286Z,38.69
2023-03-19T14:35:16.372Z,39.36
2023-03-19T14:37:49.368Z,40.13
2023-03-19T14:40:22.706Z,38.46
2023-03-19T14:42:56.533Z,39.48
2023-03-19T14:45:32.669Z,41.49
2023-03-19T14:48:45.686Z,42.83
2023-03-19T14:51:40.266Z,41.60
2023-03-19T14:54:21.038Z,41.54
2023-03-19T14:56:48.925Z,38.77
2023-03-19T14:59:16.135Z,39.40
2023-03-19T15:01:50.076Z,40.06
2023-03-19T15:04:18.008Z,39.96
2023-03-19T15:06:54.969Z,42.49
2023-03-19T15:09:33.957Z,41.49
2023-03-19T15:12:31.541Z,40.71
2023-03-19T15:15:19.746Z,40.02
2023-03-19T15:18:02.914Z,41.68
2023-03-19T15:20:38.715Z,40.78
2023-03-19T15:23:25.865Z,38.58
2023-03-19T15:26:20.475Z,37.95
2023-03-19T15:28:53.872Z,38.52
2023-03-19T15:31:37.532Z,39.16
2023-03-19T15:34:21.528Z,41.94
2023-03-19T15:36:53.580Z,42.23
2023-03-19T15:39:25.049Z,41.35
2023-03-19T15:41:53.470Z,41.67
2023-03-19T15:44:33.256Z,43.11
2023-03-19T15:47:03.959Z,42.39
2023-03-19T15:49:47.415Z,44.90
2023-03-19T15:52:18.209Z,42.72
2023-03-19T15:54:45.369Z,44.96
2023-03-19T15:57:16.480Z,45.48
2023-03-19T15:59:44.315Z,45.67
2023-03-19T16:02:24.785Z,43.40
2023-03-19T16:05:23.839Z,42.91
2023-03-19T16:07:43.418Z,44.60
2023-03-19T16:10:43.865Z,45.33
2023-03-19T16:13:25.845Z,47.47
2023-03-19T16:16:22.389Z,47.73
2023-03-19T16:18:53.066Z,45.53
2023-03-19T16:21:29.258Z,46.78
2023-03-19T16:24:02.486Z,47.64
2023-03-19T16:26:41.801Z,48.71
2023-03-19T16:29:18.505Z,51.40
2023-03-19T16:31:51.975Z,51.09
2023-03-19T16:34:25.746Z,50.87
2023-03-19T16:36:52.781Z,52.08
2023-03-19T16:39:35.800Z,53.40
2023-03-19T16:42:09.029Z,51.08
2023-03-19T16:44:40.923Z,51.99
2023-03-19T16:47:13.323Z,53.69
2023-03-19T16:49:40.659Z,53.06
2023-03-19T16:52:16.042Z,53.93
2023-03-19T16:54:43.481Z,55.29
2023-03-19T16:57:13.547Z,54.95
2023-03-19T16:59:41.008Z,57.22
2023-03-19T17:02:16.855Z,56.72
2023-03-19T17:04:47.094Z,55.32
2023-03-19T17:07:14.072Z,55.46
2023-03-19T17:09:41.158Z,57.60
2023-03-19T17:12:14.637Z,56.35
2023-03-19T17:14:42.518Z,58.58
2023-03-19T17:17:22.339Z,59.94
2023-03-19T17:19:49.806Z,58.59
2023-03-19T17:22:16.812Z,58.85
2023-03-19T17:24:54.335Z,58.40
2023-03-19T17:27:25.104Z,59.19
2023-03-19T17:29:52.175Z,60.34
2023-03-19T17:32:20.139Z,61.16
2023-03-19T17:34:47.332Z,59.61
2023-03-19T17:37:15.019Z,60.67
2023-03-19T17:39:43.380Z,61.91
2023-03-19T17:42:29.495Z,63.56
2023-03-19T17:45:02.842Z,62.76
2023-03-19T17:47:29.941Z,64.78
2023-03-19T17:49:57.334Z,66.78
2023-03-19T17:52:24.360Z,67.77
2023-03-19T17:54:51.403Z,68.87
2023-03-19T17:57:22.226Z,67.40
2023-03-19T17:59:49.202Z,68.66
2023-03-19T18:02:24.762Z,67.51
2023-03-19T18:04:52.708Z,67.18
2023-03-19T18:07:19.873Z,68.56
2023-03-19T18:09:47.073Z,70.22
2023-03-19T18:12:13.880Z,68.96
2023-03-19T18:14:40.866Z,68.44
2023-03-19T18:17:10.589Z,69.95
2023-03-19T18:19:38.694Z,70.81
2023-03-19T18:22:13.982Z,71.71
2023-03-19T18:24:41.631Z,72.04
2023-03-19T18:27:08.439Z,73.15
2023-03-19T18:29:35.578Z,73.05
2023-03-19T18:32:06.825Z,72.27
2023-03-19T18:34:34.267Z,71.46
2023-03-19T18:37:02.170Z,70.69
2023-03-19T18:39:30.118Z,70.66
2023-03-19T18:41:57.236Z,71.14
2023-03-19T18:44:24.344Z,73.12
2023-03-19T18:46:51.371Z,72.15
2023-03-19T18:49:29.923Z,73.56
2023-03-19T18:52:04.576Z,72.86
2023-03-19T18:54:32.691Z,71.95
2023-03-19T18:57:01.144Z,73.01
2023-03-19T18:59:31.013Z,71.30
2023-03-19T19:02:21.221Z,70.55
2023-03-19T19:04:48.468Z,69.86
2023-03-19T19:07:16.697Z,71.63
2023-03-19T19:09:43.618Z,72.29
2023-03-19T19:12:14.769Z,73.00
2023-03-19T19:14:43.150Z,72.70
2023-03-19T19:17:16.824Z,72.15
2023-03-19T19:19:43.692Z,72.34
2023-03-19T19:22:18.953Z,71.83
2023-03-19T19:24:46.144Z,73.05
2023-03-19T19:27:26.628Z,73.23
2023-03-19T19:29:53.755Z,73.03
2023-03-19T19:32:27.591Z,73.47
2023-03-19T19:34:55.102Z,73.89
2023-03-19T19:37:23.520Z,73.63
2023-03-19T19:39:51.601Z,73.30
2023-03-19T19:42:21.166Z,73.79
2023-03-19T19:44:52.667Z,73.93
2023-03-19T19:47:19.868Z,74.30
2023-03-19T19:49:46.858Z,75.01
2023-03-19T19:52:19.517Z,75.73
2023-03-19T19:54:47.049Z,75.82
2023-03-19T19:57:22.019Z,76.50
2023-03-19T19:59:50.333Z,76.82
2023-03-19T20:02:22.485Z,76.40
2023-03-19T20:04:49.731Z,76.23
2023-03-19T20:07:16.726Z,74.60
2023-03-19T20:09:44.212Z,72.89
2023-03-19T20:12:19.408Z,72.59
2023-03-19T20:14:46.962Z,73.85
2023-03-19T20:17:16.217Z,74.43
2023-03-19T20:19:44.400Z,75.04
2023-03-19T20:22:11.317Z,75.18
2023-03-19T20:24:39.143Z,75.94
2023-03-19T20:27:15.873Z,74.84
2023-03-19T20:29:43.821Z,74.75
2023-03-19T20:32:38.223Z,76.18
2023-03-19T20:35:14.210Z,76.71
2023-03-19T20:37:41.214Z,75.56
2023-03-19T20:40:08.323Z,75.60
2023-03-19T20:42:35.629Z,75.88
2023-03-19T20:45:02.971Z,76.58
2023-03-19T20:47:33.133Z,76.92
2023-03-19T20:50:00.406Z,75.23
2023-03-19T20:52:27.345Z,75.22
2023-03-19T20:54:54.545Z,76.72
2023-03-19T20:57:30.747Z,77.60
2023-03-19T21:00:07.013Z,77.53
2023-03-19T21:02:34.019Z,78.33
2023-03-19T21:05:07.464Z,79.03
2023-03-19T21:07:34.734Z,79.30
2023-03-19T21:10:19.951Z,78.27
2023-03-19T21:12:46.809Z,76.98
2023-03-19T21:15:15.080Z,77.90
2023-03-19T21:17:42.218Z,78.05
2023-03-19T21:20:17.404Z,78.41
2023-03-19T21:22:47.656Z,79.21
2023-03-19T21:25:30.390Z,79.12
2023-03-19T21:28:03.487Z,79.67
2023-03-19T21:30:30.851Z,80.32
2023-03-19T21:32:57.691Z,80.71
2023-03-19T21:35:27.281Z,80.90
2023-03-19T21:37:54.630Z,80.54
2023-03-19T21:40:30.302Z,79.56
2023-03-19T21:43:02.420Z,79.86
2023-03-19T21:45:35.390Z,78.58
2023-03-19T21:48:23.049Z,78.05
2023-03-19T21:50:59.291Z,78.33
2023-03-19T21:53:29.597Z,79.20
2023-03-19T21:55:59.107Z,80.09
2023-03-19T21:58:34.834Z,80.64
2023-03-19T22:01:04.102Z,80.96
2023-03-19T22:03:31.392Z,80.62
2023-03-19T22:05:58.553Z,80.33
2023-03-19T22:08:25.774Z,80.40
2023-03-19T22:10:58.563Z,81.07
2023-03-19T22:13:33.981Z,81.33
2023-03-19T22:16:01.747Z,81.71
2023-03-19T22:18:30.044Z,82.12
2023-03-19T22:20:56.854Z,82.37
2023-03-19T22:23:23.898Z,82.07
2023-03-19T22:25:53.033Z,82.10
2023-03-19T22:28:33.975Z,82.60
2023-03-19T22:31:03.178Z,82.32
2023-03-19T22:33:30.371Z,82.68
2023-03-19T22:35:57.232Z,82.22
2023-03-19T22:38:24.429Z,82.44
2023-03-19T22:40:54.702Z,82.84
2023-03-19T22:43:34.617Z,83.32
2023-03-19T22:46:13.595Z,83.09
2023-03-19T22:48:43.440Z,83.54
2023-03-19T22:51:17.744Z,83.80
2023-03-19T22:53:56.589Z,84.06
2023-03-19T22:56:32.261Z,83.94
2023-03-19T22:59:07.906Z,84.17
2023-03-19T23:01:39.982Z,84.01
2023-03-19T23:04:37.816Z,84.44
2023-03-19T23:07:04.928Z,84.44
2023-03-19T23:09:38.748Z,84.69
2023-03-19T23:14:34.717Z,84.79
2023-03-19T23:17:10.106Z,84.89
2023-03-19T23:19:38.487Z,84.70
2023-03-19T23:22:09.741Z,84.76
2023-03-19T23:24:36.744Z,84.81
2023-03-19T23:27:04.186Z,84.80
2023-03-19T23:29:35.331Z,84.94
2023-03-19T23:32:03.527Z,85.33
2023-03-19T23:34:30.427Z,85.68
2023-03-19T23:36:58.095Z,85.28
2023-03-19T23:39:25.705Z,84.92
2023-03-19T23:41:56.926Z,85.20
2023-03-19T23:44:24.211Z,85.35
2023-03-19T23:46:51.790Z,85.66
2023-03-19T23:49:29.004Z,85.75
2023-03-19T23:51:56.778Z,85.76
2023-03-19T23:54:31.555Z,85.92
2023-03-19T23:57:01.632Z,86.01
2023-03-19T23:59:33.534Z,85.68
